Main page
METAR-TAF:

METAR-TAF

Airports :

RNAS Yeovilton (HMS Heron)

Yeovilton, England

latitude: 51-00N, longitude: 002-38W, elevation: 23 m

Current weather observation

The report was made 35 minutes ago, at 19:19 UTC
Wind 5 kt from the South/Southeast
Temperature 17°C
Humidity 72%
Pressure 1015 hPa
Visibility 10 km or more
no clouds below 1500 m and no cumulonimbus

METAR: EGDY 211919Z 16005KT CAVOK 17/12 Q1015 NOSIG RMK BLU BLU

Time: 20:54 (19:54 UTC)

Forecast

The report was made 3 hours and 34 minutes ago, at 16:20 UTC
Forecast valid from 21 at 18 UTC to 22 at 03 UTC
Wind 3 kt from variable directions
Visibility 10 km or more
no clouds below 1500 m and no cumulonimbus
Probability 30%
from 22 at 01 UTC to 22 at 03 UTC
Visibility: 4000 m
Scattered clouds at a height of 400 ft
mist

TAF: EGDY 211620Z 2118/2203 VRB03KT CAVOK PROB30 2201/2203 4000 BR SCT004

Weather observations and forecasts of more than 4000 airports (METAR and TAF reports).

The available stations are represented by yellow and red dots on the map.

Hover mouse over dot to see the name of the station.

Then click to see weather observations and forecasts.

To change the map : click on the green buttons with a black cross to zoom in, on the green button with a dash to zoom out, or on the green arrows for adjacent maps.


METAR-TAF: